sensor_id;sensor_type;location;lat;lon;timestamp;P1;durP1;ratioP1;P2;durP2;ratioP2
13891;SDS011;7016;48.172;8.058;2023-03-23T00:01:07;7.18;;;2.30;;
13891;SDS011;7016;48.172;8.058;2023-03-23T00:03:35;7.45;;;2.50;;
13891;SDS011;7016;48.172;8.058;2023-03-23T00:06:02;3.35;;;2.05;;
13891;SDS011;7016;48.172;8.058;2023-03-23T00:08:30;3.90;;;2.38;;
13891;SDS011;7016;48.172;8.058;2023-03-23T00:10:56;4.35;;;2.20;;
13891;SDS011;7016;48.172;8.058;2023-03-23T00:13:25;3.00;;;2.00;;
13891;SDS011;7016;48.172;8.058;2023-03-23T00:15:53;3.45;;;2.20;;
13891;SDS011;7016;48.172;8.058;2023-03-23T00:18:19;5.35;;;2.33;;
13891;SDS011;7016;48.172;8.058;2023-03-23T00:20:53;5.75;;;2.20;;
13891;SDS011;7016;48.172;8.058;2023-03-23T00:23:21;3.10;;;1.90;;
13891;SDS011;7016;48.172;8.058;2023-03-23T00:25:55;5.50;;;2.38;;
13891;SDS011;7016;48.172;8.058;2023-03-23T00:28:27;3.67;;;2.30;;
13891;SDS011;7016;48.172;8.058;2023-03-23T00:30:54;3.85;;;2.10;;
13891;SDS011;7016;48.172;8.058;2023-03-23T00:33:22;4.00;;;2.00;;
13891;SDS011;7016;48.172;8.058;2023-03-23T00:35:58;5.25;;;2.40;;
13891;SDS011;7016;48.172;8.058;2023-03-23T00:38:32;3.95;;;2.03;;
13891;SDS011;7016;48.172;8.058;2023-03-23T00:41:16;3.58;;;2.17;;
13891;SDS011;7016;48.172;8.058;2023-03-23T00:43:42;4.65;;;2.28;;
13891;SDS011;7016;48.172;8.058;2023-03-23T00:46:08;10.85;;;2.40;;
13891;SDS011;7016;48.172;8.058;2023-03-23T00:48:35;5.45;;;2.33;;
13891;SDS011;7016;48.172;8.058;2023-03-23T00:51:09;5.15;;;2.33;;
13891;SDS011;7016;48.172;8.058;2023-03-23T00:53:35;6.45;;;2.22;;
13891;SDS011;7016;48.172;8.058;2023-03-23T00:56:01;4.38;;;2.58;;
13891;SDS011;7016;48.172;8.058;2023-03-23T00:58:27;4.18;;;2.30;;
13891;SDS011;7016;48.172;8.058;2023-03-23T01:00:53;3.10;;;2.25;;
13891;SDS011;7016;48.172;8.058;2023-03-23T01:03:18;3.80;;;2.42;;
13891;SDS011;7016;48.172;8.058;2023-03-23T01:05:45;4.32;;;2.30;;
13891;SDS011;7016;48.172;8.058;2023-03-23T01:08:16;4.15;;;2.10;;
13891;SDS011;7016;48.172;8.058;2023-03-23T01:10:44;4.35;;;2.30;;
13891;SDS011;7016;48.172;8.058;2023-03-23T01:13:10;3.40;;;2.45;;
13891;SDS011;7016;48.172;8.058;2023-03-23T01:15:37;6.32;;;2.15;;
13891;SDS011;7016;48.172;8.058;2023-03-23T01:18:03;5.35;;;2.38;;
13891;SDS011;7016;48.172;8.058;2023-03-23T01:20:29;4.35;;;2.20;;
13891;SDS011;7016;48.172;8.058;2023-03-23T01:22:56;5.85;;;2.80;;
13891;SDS011;7016;48.172;8.058;2023-03-23T01:25:35;4.38;;;2.22;;
13891;SDS011;7016;48.172;8.058;2023-03-23T01:28:01;4.97;;;2.30;;
13891;SDS011;7016;48.172;8.058;2023-03-23T01:30:27;4.80;;;2.35;;
13891;SDS011;7016;48.172;8.058;2023-03-23T01:32:53;4.88;;;2.30;;
13891;SDS011;7016;48.172;8.058;2023-03-23T01:35:20;5.07;;;2.00;;
13891;SDS011;7016;48.172;8.058;2023-03-23T01:37:46;8.73;;;2.45;;
13891;SDS011;7016;48.172;8.058;2023-03-23T01:40:12;4.95;;;2.70;;
13891;SDS011;7016;48.172;8.058;2023-03-23T01:42:39;4.03;;;2.50;;
13891;SDS011;7016;48.172;8.058;2023-03-23T01:47:55;4.75;;;2.58;;
13891;SDS011;7016;48.172;8.058;2023-03-23T01:50:25;5.65;;;2.50;;
13891;SDS011;7016;48.172;8.058;2023-03-23T01:52:54;9.57;;;2.42;;
13891;SDS011;7016;48.172;8.058;2023-03-23T01:55:23;5.43;;;2.55;;
13891;SDS011;7016;48.172;8.058;2023-03-23T01:57:50;4.35;;;2.25;;
13891;SDS011;7016;48.172;8.058;2023-03-23T02:00:16;3.97;;;2.22;;
13891;SDS011;7016;48.172;8.058;2023-03-23T02:02:43;4.03;;;2.40;;
13891;SDS011;7016;48.172;8.058;2023-03-23T02:05:13;4.82;;;2.70;;
13891;SDS011;7016;48.172;8.058;2023-03-23T02:07:44;4.57;;;2.78;;
13891;SDS011;7016;48.172;8.058;2023-03-23T02:10:11;6.30;;;2.55;;
13891;SDS011;7016;48.172;8.058;2023-03-23T02:12:37;6.20;;;2.50;;
13891;SDS011;7016;48.172;8.058;2023-03-23T02:15:03;2.95;;;2.28;;
13891;SDS011;7016;48.172;8.058;2023-03-23T02:20:33;6.05;;;2.97;;
13891;SDS011;7016;48.172;8.058;2023-03-23T02:31:44;4.60;;;2.47;;
13891;SDS011;7016;48.172;8.058;2023-03-23T02:34:32;4.07;;;2.30;;
13891;SDS011;7016;48.172;8.058;2023-03-23T02:37:01;4.25;;;2.20;;
13891;SDS011;7016;48.172;8.058;2023-03-23T02:39:37;4.55;;;2.35;;
13891;SDS011;7016;48.172;8.058;2023-03-23T02:42:17;4.95;;;2.30;;
13891;SDS011;7016;48.172;8.058;2023-03-23T02:45:05;3.80;;;2.25;;
13891;SDS011;7016;48.172;8.058;2023-03-23T02:47:37;7.80;;;2.00;;
13891;SDS011;7016;48.172;8.058;2023-03-23T02:50:05;7.63;;;3.15;;
13891;SDS011;7016;48.172;8.058;2023-03-23T02:52:35;8.30;;;3.95;;
13891;SDS011;7016;48.172;8.058;2023-03-23T02:55:03;5.82;;;2.83;;
13891;SDS011;7016;48.172;8.058;2023-03-23T02:57:31;4.53;;;2.33;;
13891;SDS011;7016;48.172;8.058;2023-03-23T02:59:57;3.15;;;2.40;;
13891;SDS011;7016;48.172;8.058;2023-03-23T03:02:32;4.57;;;1.90;;
13891;SDS011;7016;48.172;8.058;2023-03-23T03:10:37;4.32;;;2.08;;
13891;SDS011;7016;48.172;8.058;2023-03-23T03:19:20;4.95;;;2.15;;
13891;SDS011;7016;48.172;8.058;2023-03-23T03:21:50;6.53;;;2.42;;
13891;SDS011;7016;48.172;8.058;2023-03-23T03:24:18;4.82;;;2.67;;
13891;SDS011;7016;48.172;8.058;2023-03-23T03:26:47;3.90;;;2.50;;
13891;SDS011;7016;48.172;8.058;2023-03-23T03:29:16;4.50;;;3.03;;
13891;SDS011;7016;48.172;8.058;2023-03-23T03:31:45;4.45;;;2.72;;
13891;SDS011;7016;48.172;8.058;2023-03-23T03:34:20;4.18;;;2.50;;
13891;SDS011;7016;48.172;8.058;2023-03-23T03:36:49;5.68;;;2.20;;
13891;SDS011;7016;48.172;8.058;2023-03-23T03:39:18;3.08;;;2.00;;
13891;SDS011;7016;48.172;8.058;2023-03-23T03:41:46;5.43;;;2.08;;
13891;SDS011;7016;48.172;8.058;2023-03-23T03:44:13;2.80;;;1.65;;
13891;SDS011;7016;48.172;8.058;2023-03-23T03:46:38;2.25;;;1.90;;
13891;SDS011;7016;48.172;8.058;2023-03-23T03:49:06;2.63;;;1.70;;
13891;SDS011;7016;48.172;8.058;2023-03-23T03:51:33;5.40;;;1.83;;
13891;SDS011;7016;48.172;8.058;2023-03-23T03:54:00;3.90;;;1.88;;
13891;SDS011;7016;48.172;8.058;2023-03-23T03:56:26;2.60;;;1.88;;
13891;SDS011;7016;48.172;8.058;2023-03-23T03:58:52;3.92;;;1.73;;
13891;SDS011;7016;48.172;8.058;2023-03-23T04:01:19;4.75;;;1.75;;
13891;SDS011;7016;48.172;8.058;2023-03-23T04:03:49;2.97;;;1.73;;
13891;SDS011;7016;48.172;8.058;2023-03-23T04:06:16;5.82;;;1.67;;
13891;SDS011;7016;48.172;8.058;2023-03-23T04:08:43;4.15;;;1.63;;
13891;SDS011;7016;48.172;8.058;2023-03-23T04:11:10;3.65;;;1.90;;
13891;SDS011;7016;48.172;8.058;2023-03-23T04:13:38;3.00;;;1.67;;
13891;SDS011;7016;48.172;8.058;2023-03-23T04:16:05;3.65;;;2.00;;
13891;SDS011;7016;48.172;8.058;2023-03-23T04:18:32;4.93;;;1.80;;
13891;SDS011;7016;48.172;8.058;2023-03-23T04:21:00;4.28;;;1.95;;
13891;SDS011;7016;48.172;8.058;2023-03-23T04:23:28;3.65;;;2.08;;
13891;SDS011;7016;48.172;8.058;2023-03-23T04:25:56;2.50;;;1.58;;
13891;SDS011;7016;48.172;8.058;2023-03-23T04:28:23;4.47;;;2.20;;
13891;SDS011;7016;48.172;8.058;2023-03-23T04:30:55;5.90;;;1.83;;
13891;SDS011;7016;48.172;8.058;2023-03-23T04:33:37;4.13;;;1.90;;
13891;SDS011;7016;48.172;8.058;2023-03-23T04:36:06;3.88;;;2.10;;
13891;SDS011;7016;48.172;8.058;2023-03-23T04:38:32;6.35;;;1.88;;
13891;SDS011;7016;48.172;8.058;2023-03-23T04:40:59;5.28;;;2.20;;
13891;SDS011;7016;48.172;8.058;2023-03-23T04:43:27;7.65;;;2.40;;
13891;SDS011;7016;48.172;8.058;2023-03-23T04:45:54;5.47;;;1.98;;
13891;SDS011;7016;48.172;8.058;2023-03-23T04:48:24;2.85;;;1.80;;
13891;SDS011;7016;48.172;8.058;2023-03-23T04:50:54;5.78;;;2.28;;
13891;SDS011;7016;48.172;8.058;2023-03-23T04:53:33;4.82;;;2.28;;
13891;SDS011;7016;48.172;8.058;2023-03-23T04:56:06;5.47;;;2.47;;
13891;SDS011;7016;48.172;8.058;2023-03-23T04:58:32;6.43;;;2.85;;
13891;SDS011;7016;48.172;8.058;2023-03-23T05:00:59;8.48;;;3.85;;
13891;SDS011;7016;48.172;8.058;2023-03-23T05:03:25;5.88;;;2.60;;
13891;SDS011;7016;48.172;8.058;2023-03-23T05:05:52;6.28;;;2.72;;
13891;SDS011;7016;48.172;8.058;2023-03-23T05:08:22;3.00;;;1.70;;
13891;SDS011;7016;48.172;8.058;2023-03-23T05:10:52;6.75;;;2.80;;
13891;SDS011;7016;48.172;8.058;2023-03-23T05:13:19;5.53;;;2.67;;
13891;SDS011;7016;48.172;8.058;2023-03-23T05:15:45;5.07;;;2.22;;
13891;SDS011;7016;48.172;8.058;2023-03-23T05:18:11;5.68;;;2.00;;
13891;SDS011;7016;48.172;8.058;2023-03-23T05:20:37;5.38;;;1.75;;
13891;SDS011;7016;48.172;8.058;2023-03-23T05:23:04;5.40;;;2.30;;
13891;SDS011;7016;48.172;8.058;2023-03-23T05:25:30;3.53;;;1.95;;
13891;SDS011;7016;48.172;8.058;2023-03-23T05:28:01;4.40;;;1.95;;
13891;SDS011;7016;48.172;8.058;2023-03-23T05:30:27;6.63;;;1.98;;
13891;SDS011;7016;48.172;8.058;2023-03-23T05:32:53;4.80;;;1.67;;
13891;SDS011;7016;48.172;8.058;2023-03-23T05:35:19;6.68;;;2.25;;
13891;SDS011;7016;48.172;8.058;2023-03-23T05:37:45;5.20;;;2.00;;
13891;SDS011;7016;48.172;8.058;2023-03-23T05:40:12;3.05;;;2.03;;
13891;SDS011;7016;48.172;8.058;2023-03-23T05:42:38;5.72;;;2.10;;
13891;SDS011;7016;48.172;8.058;2023-03-23T05:45:06;4.30;;;1.83;;
13891;SDS011;7016;48.172;8.058;2023-03-23T05:47:34;4.72;;;1.90;;
13891;SDS011;7016;48.172;8.058;2023-03-23T05:50:00;5.35;;;1.65;;
13891;SDS011;7016;48.172;8.058;2023-03-23T05:52:25;4.85;;;2.15;;
13891;SDS011;7016;48.172;8.058;2023-03-23T05:54:52;2.88;;;1.77;;
13891;SDS011;7016;48.172;8.058;2023-03-23T05:57:18;7.95;;;1.90;;
13891;SDS011;7016;48.172;8.058;2023-03-23T05:59:47;3.67;;;2.00;;
13891;SDS011;7016;48.172;8.058;2023-03-23T06:02:13;4.03;;;2.08;;
13891;SDS011;7016;48.172;8.058;2023-03-23T06:04:39;7.53;;;2.30;;
13891;SDS011;7016;48.172;8.058;2023-03-23T06:07:06;3.35;;;2.08;;
13891;SDS011;7016;48.172;8.058;2023-03-23T06:09:32;2.85;;;2.10;;
13891;SDS011;7016;48.172;8.058;2023-03-23T06:11:58;3.95;;;2.15;;
13891;SDS011;7016;48.172;8.058;2023-03-23T06:14:25;4.38;;;2.20;;
13891;SDS011;7016;48.172;8.058;2023-03-23T06:16:51;5.07;;;2.05;;
13891;SDS011;7016;48.172;8.058;2023-03-23T06:19:19;4.43;;;1.75;;
13891;SDS011;7016;48.172;8.058;2023-03-23T06:21:52;3.88;;;2.00;;
13891;SDS011;7016;48.172;8.058;2023-03-23T06:24:21;4.78;;;2.33;;
13891;SDS011;7016;48.172;8.058;2023-03-23T06:26:47;3.25;;;2.08;;
13891;SDS011;7016;48.172;8.058;2023-03-23T06:29:14;5.93;;;2.05;;
13891;SDS011;7016;48.172;8.058;2023-03-23T06:31:40;5.80;;;2.20;;
13891;SDS011;7016;48.172;8.058;2023-03-23T06:34:09;4.43;;;1.90;;
13891;SDS011;7016;48.172;8.058;2023-03-23T06:36:36;4.75;;;2.58;;
13891;SDS011;7016;48.172;8.058;2023-03-23T06:39:03;5.07;;;2.10;;
13891;SDS011;7016;48.172;8.058;2023-03-23T06:41:30;3.78;;;2.03;;
13891;SDS011;7016;48.172;8.058;2023-03-23T06:43:57;3.97;;;2.00;;
13891;SDS011;7016;48.172;8.058;2023-03-23T06:49:07;7.60;;;2.28;;
13891;SDS011;7016;48.172;8.058;2023-03-23T06:51:33;7.68;;;3.20;;
13891;SDS011;7016;48.172;8.058;2023-03-23T06:54:00;3.92;;;2.78;;
13891;SDS011;7016;48.172;8.058;2023-03-23T06:56:26;6.47;;;2.60;;
13891;SDS011;7016;48.172;8.058;2023-03-23T06:58:52;3.83;;;2.13;;
13891;SDS011;7016;48.172;8.058;2023-03-23T07:01:18;3.50;;;2.00;;
13891;SDS011;7016;48.172;8.058;2023-03-23T07:03:43;4.47;;;2.20;;
13891;SDS011;7016;48.172;8.058;2023-03-23T07:06:09;5.30;;;2.15;;
13891;SDS011;7016;48.172;8.058;2023-03-23T07:08:35;3.65;;;2.25;;
13891;SDS011;7016;48.172;8.058;2023-03-23T07:11:01;4.32;;;2.08;;
13891;SDS011;7016;48.172;8.058;2023-03-23T07:13:27;3.75;;;2.00;;
13891;SDS011;7016;48.172;8.058;2023-03-23T07:15:53;5.50;;;2.22;;
13891;SDS011;7016;48.172;8.058;2023-03-23T07:18:21;5.25;;;2.03;;
13891;SDS011;7016;48.172;8.058;2023-03-23T07:20:47;7.53;;;1.85;;
13891;SDS011;7016;48.172;8.058;2023-03-23T07:23:14;4.78;;;2.00;;
13891;SDS011;7016;48.172;8.058;2023-03-23T07:25:40;7.93;;;2.40;;
13891;SDS011;7016;48.172;8.058;2023-03-23T07:28:06;4.15;;;2.35;;
13891;SDS011;7016;48.172;8.058;2023-03-23T07:30:32;4.15;;;2.10;;
13891;SDS011;7016;48.172;8.058;2023-03-23T07:32:57;4.35;;;2.30;;
13891;SDS011;7016;48.172;8.058;2023-03-23T07:35:23;7.18;;;3.65;;
13891;SDS011;7016;48.172;8.058;2023-03-23T07:37:50;7.03;;;2.97;;
13891;SDS011;7016;48.172;8.058;2023-03-23T07:40:17;5.30;;;3.85;;
13891;SDS011;7016;48.172;8.058;2023-03-23T07:42:44;6.47;;;3.45;;
13891;SDS011;7016;48.172;8.058;2023-03-23T07:45:11;7.20;;;2.72;;
13891;SDS011;7016;48.172;8.058;2023-03-23T07:47:38;17.20;;;9.25;;
13891;SDS011;7016;48.172;8.058;2023-03-23T07:50:05;6.80;;;3.25;;
13891;SDS011;7016;48.172;8.058;2023-03-23T07:52:33;8.18;;;3.97;;
13891;SDS011;7016;48.172;8.058;2023-03-23T07:54:59;5.18;;;2.90;;
13891;SDS011;7016;48.172;8.058;2023-03-23T07:57:27;10.02;;;2.90;;
13891;SDS011;7016;48.172;8.058;2023-03-23T07:59:53;5.47;;;2.65;;
13891;SDS011;7016;48.172;8.058;2023-03-23T08:02:19;5.22;;;2.47;;
13891;SDS011;7016;48.172;8.058;2023-03-23T08:04:44;8.23;;;4.00;;
13891;SDS011;7016;48.172;8.058;2023-03-23T08:07:12;7.13;;;3.20;;
13891;SDS011;7016;48.172;8.058;2023-03-23T08:09:41;7.43;;;3.67;;
13891;SDS011;7016;48.172;8.058;2023-03-23T08:12:07;10.73;;;4.20;;
13891;SDS011;7016;48.172;8.058;2023-03-23T08:14:33;11.55;;;4.28;;
13891;SDS011;7016;48.172;8.058;2023-03-23T08:16:59;9.95;;;3.88;;
13891;SDS011;7016;48.172;8.058;2023-03-23T08:19:25;10.65;;;4.47;;
13891;SDS011;7016;48.172;8.058;2023-03-23T08:21:51;12.48;;;4.18;;
13891;SDS011;7016;48.172;8.058;2023-03-23T08:24:17;8.80;;;3.97;;
13891;SDS011;7016;48.172;8.058;2023-03-23T08:26:43;9.02;;;3.00;;
13891;SDS011;7016;48.172;8.058;2023-03-23T08:29:09;6.53;;;2.80;;
13891;SDS011;7016;48.172;8.058;2023-03-23T08:31:35;5.97;;;3.08;;
13891;SDS011;7016;48.172;8.058;2023-03-23T08:34:02;8.65;;;3.30;;
13891;SDS011;7016;48.172;8.058;2023-03-23T08:36:30;6.78;;;3.08;;
13891;SDS011;7016;48.172;8.058;2023-03-23T08:39:00;5.78;;;3.10;;
13891;SDS011;7016;48.172;8.058;2023-03-23T08:41:26;7.78;;;3.72;;
13891;SDS011;7016;48.172;8.058;2023-03-23T08:43:52;9.05;;;2.90;;
13891;SDS011;7016;48.172;8.058;2023-03-23T08:46:18;5.72;;;2.38;;
13891;SDS011;7016;48.172;8.058;2023-03-23T08:48:44;3.80;;;2.47;;
13891;SDS011;7016;48.172;8.058;2023-03-23T08:51:11;4.13;;;2.53;;
13891;SDS011;7016;48.172;8.058;2023-03-23T08:53:37;4.68;;;2.42;;
13891;SDS011;7016;48.172;8.058;2023-03-23T08:56:06;4.28;;;2.38;;
13891;SDS011;7016;48.172;8.058;2023-03-23T08:58:35;3.58;;;2.13;;
13891;SDS011;7016;48.172;8.058;2023-03-23T09:01:02;3.58;;;2.20;;
13891;SDS011;7016;48.172;8.058;2023-03-23T09:03:28;4.38;;;2.17;;
13891;SDS011;7016;48.172;8.058;2023-03-23T09:05:58;5.35;;;2.67;;
13891;SDS011;7016;48.172;8.058;2023-03-23T09:08:25;3.97;;;2.42;;
13891;SDS011;7016;48.172;8.058;2023-03-23T09:10:54;4.55;;;2.03;;
13891;SDS011;7016;48.172;8.058;2023-03-23T09:13:27;7.60;;;2.40;;
13891;SDS011;7016;48.172;8.058;2023-03-23T09:15:53;5.85;;;2.88;;
13891;SDS011;7016;48.172;8.058;2023-03-23T09:18:19;9.80;;;2.40;;
13891;SDS011;7016;48.172;8.058;2023-03-23T09:20:45;4.82;;;2.72;;
13891;SDS011;7016;48.172;8.058;2023-03-23T09:23:11;5.63;;;2.38;;
13891;SDS011;7016;48.172;8.058;2023-03-23T09:25:38;5.13;;;2.78;;
13891;SDS011;7016;48.172;8.058;2023-03-23T09:28:04;7.55;;;3.25;;
13891;SDS011;7016;48.172;8.058;2023-03-23T09:30:31;7.10;;;3.15;;
13891;SDS011;7016;48.172;8.058;2023-03-23T09:33:02;6.07;;;2.72;;
13891;SDS011;7016;48.172;8.058;2023-03-23T09:35:29;8.90;;;3.10;;
13891;SDS011;7016;48.172;8.058;2023-03-23T09:37:57;8.77;;;2.90;;
13891;SDS011;7016;48.172;8.058;2023-03-23T09:40:29;23.02;;;9.50;;
13891;SDS011;7016;48.172;8.058;2023-03-23T09:48:57;8.05;;;4.03;;
13891;SDS011;7016;48.172;8.058;2023-03-23T09:54:24;5.20;;;2.75;;
13891;SDS011;7016;48.172;8.058;2023-03-23T09:56:51;6.35;;;2.60;;
13891;SDS011;7016;48.172;8.058;2023-03-23T09:59:19;3.95;;;2.30;;
13891;SDS011;7016;48.172;8.058;2023-03-23T10:02:19;5.85;;;2.40;;
13891;SDS011;7016;48.172;8.058;2023-03-23T10:04:48;4.78;;;2.20;;
13891;SDS011;7016;48.172;8.058;2023-03-23T10:07:20;4.95;;;2.15;;
13891;SDS011;7016;48.172;8.058;2023-03-23T10:09:55;3.42;;;2.00;;
13891;SDS011;7016;48.172;8.058;2023-03-23T10:13:01;3.90;;;2.13;;
13891;SDS011;7016;48.172;8.058;2023-03-23T10:15:24;8.35;;;3.28;;
13891;SDS011;7016;48.172;8.058;2023-03-23T10:18:17;8.13;;;3.28;;
13891;SDS011;7016;48.172;8.058;2023-03-23T10:20:53;15.68;;;4.65;;
13891;SDS011;7016;48.172;8.058;2023-03-23T10:31:09;11.10;;;3.67;;
13891;SDS011;7016;48.172;8.058;2023-03-23T10:33:47;5.32;;;2.70;;
13891;SDS011;7016;48.172;8.058;2023-03-23T10:36:19;5.32;;;2.53;;
13891;SDS011;7016;48.172;8.058;2023-03-23T10:39:00;6.25;;;2.40;;
13891;SDS011;7016;48.172;8.058;2023-03-23T10:41:28;8.93;;;3.88;;
13891;SDS011;7016;48.172;8.058;2023-03-23T10:43:53;5.00;;;2.70;;
13891;SDS011;7016;48.172;8.058;2023-03-23T10:46:22;4.22;;;1.92;;
13891;SDS011;7016;48.172;8.058;2023-03-23T10:49:15;5.05;;;2.42;;
13891;SDS011;7016;48.172;8.058;2023-03-23T10:54:56;5.07;;;2.50;;
13891;SDS011;7016;48.172;8.058;2023-03-23T11:00:01;6.38;;;2.22;;
13891;SDS011;7016;48.172;8.058;2023-03-23T11:02:41;2.58;;;1.73;;
13891;SDS011;7016;48.172;8.058;2023-03-23T11:07:52;5.05;;;2.20;;
13891;SDS011;7016;48.172;8.058;2023-03-23T11:10:21;5.88;;;2.33;;
13891;SDS011;7016;48.172;8.058;2023-03-23T11:12:48;7.72;;;4.15;;
13891;SDS011;7016;48.172;8.058;2023-03-23T11:15:36;3.90;;;2.10;;
13891;SDS011;7016;48.172;8.058;2023-03-23T11:18:05;3.88;;;2.33;;
13891;SDS011;7016;48.172;8.058;2023-03-23T11:20:42;4.80;;;2.15;;
13891;SDS011;7016;48.172;8.058;2023-03-23T11:23:27;4.20;;;2.15;;
13891;SDS011;7016;48.172;8.058;2023-03-23T11:28:26;4.68;;;1.98;;
13891;SDS011;7016;48.172;8.058;2023-03-23T11:30:56;4.03;;;2.00;;
13891;SDS011;7016;48.172;8.058;2023-03-23T11:33:24;6.53;;;1.92;;
13891;SDS011;7016;48.172;8.058;2023-03-23T11:35:53;3.63;;;1.90;;
13891;SDS011;7016;48.172;8.058;2023-03-23T11:38:23;6.38;;;1.70;;
13891;SDS011;7016;48.172;8.058;2023-03-23T11:40:53;4.47;;;1.77;;
13891;SDS011;7016;48.172;8.058;2023-03-23T11:43:20;4.28;;;1.85;;
13891;SDS011;7016;48.172;8.058;2023-03-23T11:45:54;2.83;;;1.95;;
13891;SDS011;7016;48.172;8.058;2023-03-23T11:58:50;4.05;;;2.20;;
13891;SDS011;7016;48.172;8.058;2023-03-23T12:01:24;4.15;;;1.88;;
13891;SDS011;7016;48.172;8.058;2023-03-23T12:17:50;3.88;;;1.80;;
13891;SDS011;7016;48.172;8.058;2023-03-23T12:20:42;3.53;;;1.88;;
13891;SDS011;7016;48.172;8.058;2023-03-23T12:23:24;3.60;;;1.67;;
13891;SDS011;7016;48.172;8.058;2023-03-23T12:34:47;3.83;;;2.15;;
13891;SDS011;7016;48.172;8.058;2023-03-23T12:45:49;5.07;;;2.08;;
13891;SDS011;7016;48.172;8.058;2023-03-23T12:48:21;6.38;;;2.03;;
13891;SDS011;7016;48.172;8.058;2023-03-23T12:51:06;4.22;;;2.00;;
13891;SDS011;7016;48.172;8.058;2023-03-23T12:53:45;4.18;;;1.80;;
13891;SDS011;7016;48.172;8.058;2023-03-23T12:56:19;3.47;;;2.00;;
13891;SDS011;7016;48.172;8.058;2023-03-23T13:01:50;5.97;;;2.22;;
13891;SDS011;7016;48.172;8.058;2023-03-23T13:04:23;4.45;;;2.03;;
13891;SDS011;7016;48.172;8.058;2023-03-23T13:06:55;3.38;;;1.90;;
13891;SDS011;7016;48.172;8.058;2023-03-23T13:12:03;4.50;;;2.20;;
13891;SDS011;7016;48.172;8.058;2023-03-23T13:17:35;7.32;;;2.28;;
13891;SDS011;7016;48.172;8.058;2023-03-23T13:25:58;5.05;;;2.13;;
13891;SDS011;7016;48.172;8.058;2023-03-23T13:30:55;4.43;;;2.10;;
13891;SDS011;7016;48.172;8.058;2023-03-23T13:33:23;6.35;;;2.10;;
13891;SDS011;7016;48.172;8.058;2023-03-23T13:35:50;4.82;;;2.03;;
13891;SDS011;7016;48.172;8.058;2023-03-23T13:40:45;3.33;;;2.00;;
13891;SDS011;7016;48.172;8.058;2023-03-23T13:43:11;6.00;;;2.38;;
13891;SDS011;7016;48.172;8.058;2023-03-23T13:45:45;5.00;;;2.50;;
13891;SDS011;7016;48.172;8.058;2023-03-23T13:56:35;3.55;;;1.80;;
13891;SDS011;7016;48.172;8.058;2023-03-23T13:59:05;3.17;;;1.98;;
13891;SDS011;7016;48.172;8.058;2023-03-23T14:01:38;2.83;;;1.95;;
13891;SDS011;7016;48.172;8.058;2023-03-23T14:04:13;4.65;;;2.83;;
13891;SDS011;7016;48.172;8.058;2023-03-23T14:06:41;4.45;;;2.35;;
13891;SDS011;7016;48.172;8.058;2023-03-23T14:12:02;4.70;;;2.03;;
13891;SDS011;7016;48.172;8.058;2023-03-23T14:14:41;3.90;;;2.25;;
13891;SDS011;7016;48.172;8.058;2023-03-23T14:17:13;4.47;;;2.30;;
13891;SDS011;7016;48.172;8.058;2023-03-23T14:19:40;3.15;;;2.00;;
13891;SDS011;7016;48.172;8.058;2023-03-23T14:22:18;5.20;;;2.00;;
13891;SDS011;7016;48.172;8.058;2023-03-23T14:24:45;3.45;;;1.80;;
13891;SDS011;7016;48.172;8.058;2023-03-23T14:27:15;5.05;;;2.25;;
13891;SDS011;7016;48.172;8.058;2023-03-23T14:29:43;7.63;;;2.38;;
13891;SDS011;7016;48.172;8.058;2023-03-23T14:32:16;3.95;;;2.10;;
13891;SDS011;7016;48.172;8.058;2023-03-23T14:34:49;5.47;;;2.35;;
13891;SDS011;7016;48.172;8.058;2023-03-23T14:37:15;5.40;;;2.17;;
13891;SDS011;7016;48.172;8.058;2023-03-23T14:39:45;4.32;;;1.88;;
13891;SDS011;7016;48.172;8.058;2023-03-23T14:42:14;4.53;;;1.85;;
13891;SDS011;7016;48.172;8.058;2023-03-23T14:44:46;4.47;;;2.00;;
13891;SDS011;7016;48.172;8.058;2023-03-23T14:47:47;6.20;;;2.33;;
13891;SDS011;7016;48.172;8.058;2023-03-23T14:50:28;6.57;;;2.33;;
13891;SDS011;7016;48.172;8.058;2023-03-23T14:53:00;7.25;;;2.53;;
13891;SDS011;7016;48.172;8.058;2023-03-23T14:55:48;4.65;;;2.03;;
13891;SDS011;7016;48.172;8.058;2023-03-23T14:58:16;4.47;;;2.20;;
13891;SDS011;7016;48.172;8.058;2023-03-23T15:00:45;3.95;;;2.00;;
13891;SDS011;7016;48.172;8.058;2023-03-23T15:03:24;3.92;;;1.95;;
13891;SDS011;7016;48.172;8.058;2023-03-23T15:05:54;4.43;;;2.10;;
13891;SDS011;7016;48.172;8.058;2023-03-23T15:08:26;5.15;;;2.00;;
13891;SDS011;7016;48.172;8.058;2023-03-23T15:16:04;8.02;;;2.17;;
13891;SDS011;7016;48.172;8.058;2023-03-23T15:18:38;4.20;;;2.17;;
13891;SDS011;7016;48.172;8.058;2023-03-23T15:21:10;3.72;;;1.83;;
13891;SDS011;7016;48.172;8.058;2023-03-23T15:23:48;5.03;;;1.85;;
13891;SDS011;7016;48.172;8.058;2023-03-23T15:26:33;3.17;;;1.80;;
13891;SDS011;7016;48.172;8.058;2023-03-23T15:31:33;5.88;;;2.38;;
13891;SDS011;7016;48.172;8.058;2023-03-23T15:34:15;5.07;;;2.25;;
13891;SDS011;7016;48.172;8.058;2023-03-23T15:37:03;3.75;;;1.85;;
13891;SDS011;7016;48.172;8.058;2023-03-23T15:39:31;4.53;;;2.35;;
13891;SDS011;7016;48.172;8.058;2023-03-23T15:41:58;6.35;;;2.90;;
13891;SDS011;7016;48.172;8.058;2023-03-23T15:44:32;4.07;;;2.00;;
13891;SDS011;7016;48.172;8.058;2023-03-23T15:49:45;5.65;;;2.10;;
13891;SDS011;7016;48.172;8.058;2023-03-23T15:52:13;3.55;;;1.98;;
13891;SDS011;7016;48.172;8.058;2023-03-23T15:54:49;3.28;;;1.90;;
13891;SDS011;7016;48.172;8.058;2023-03-23T15:57:15;5.88;;;1.95;;
13891;SDS011;7016;48.172;8.058;2023-03-23T15:59:40;6.70;;;2.15;;
13891;SDS011;7016;48.172;8.058;2023-03-23T16:02:08;4.32;;;2.22;;
13891;SDS011;7016;48.172;8.058;2023-03-23T16:04:46;5.18;;;2.65;;
13891;SDS011;7016;48.172;8.058;2023-03-23T16:07:12;4.05;;;2.30;;
13891;SDS011;7016;48.172;8.058;2023-03-23T16:09:38;2.85;;;1.80;;
13891;SDS011;7016;48.172;8.058;2023-03-23T16:12:09;7.13;;;2.13;;
13891;SDS011;7016;48.172;8.058;2023-03-23T16:14:37;3.42;;;2.10;;
13891;SDS011;7016;48.172;8.058;2023-03-23T16:17:04;4.63;;;2.60;;
13891;SDS011;7016;48.172;8.058;2023-03-23T16:19:30;3.13;;;1.88;;
13891;SDS011;7016;48.172;8.058;2023-03-23T16:21:56;5.05;;;2.70;;
13891;SDS011;7016;48.172;8.058;2023-03-23T16:24:21;5.68;;;2.50;;
13891;SDS011;7016;48.172;8.058;2023-03-23T16:26:47;15.23;;;6.60;;
13891;SDS011;7016;48.172;8.058;2023-03-23T16:29:14;26.90;;;18.55;;
13891;SDS011;7016;48.172;8.058;2023-03-23T16:31:41;15.63;;;11.77;;
13891;SDS011;7016;48.172;8.058;2023-03-23T16:34:07;10.07;;;4.80;;
13891;SDS011;7016;48.172;8.058;2023-03-23T16:36:33;14.55;;;6.70;;
13891;SDS011;7016;48.172;8.058;2023-03-23T16:38:59;7.22;;;2.83;;
13891;SDS011;7016;48.172;8.058;2023-03-23T16:41:25;6.07;;;2.60;;
13891;SDS011;7016;48.172;8.058;2023-03-23T16:43:51;7.65;;;2.30;;
13891;SDS011;7016;48.172;8.058;2023-03-23T16:46:17;7.22;;;3.03;;
13891;SDS011;7016;48.172;8.058;2023-03-23T16:48:42;5.85;;;2.60;;
13891;SDS011;7016;48.172;8.058;2023-03-23T16:51:08;5.28;;;2.47;;
13891;SDS011;7016;48.172;8.058;2023-03-23T16:53:34;5.97;;;2.70;;
13891;SDS011;7016;48.172;8.058;2023-03-23T16:56:00;4.95;;;2.80;;
13891;SDS011;7016;48.172;8.058;2023-03-23T16:58:26;7.50;;;3.47;;
13891;SDS011;7016;48.172;8.058;2023-03-23T17:00:52;6.10;;;2.60;;
13891;SDS011;7016;48.172;8.058;2023-03-23T17:03:18;6.97;;;2.50;;
13891;SDS011;7016;48.172;8.058;2023-03-23T17:05:49;3.67;;;2.28;;
13891;SDS011;7016;48.172;8.058;2023-03-23T17:08:16;7.13;;;2.95;;
13891;SDS011;7016;48.172;8.058;2023-03-23T17:10:42;9.63;;;3.58;;
13891;SDS011;7016;48.172;8.058;2023-03-23T17:13:09;6.53;;;3.67;;
13891;SDS011;7016;48.172;8.058;2023-03-23T17:15:36;12.60;;;4.18;;
13891;SDS011;7016;48.172;8.058;2023-03-23T17:18:03;6.25;;;3.97;;
13891;SDS011;7016;48.172;8.058;2023-03-23T17:20:30;12.90;;;3.88;;
13891;SDS011;7016;48.172;8.058;2023-03-23T17:22:56;10.07;;;4.40;;
13891;SDS011;7016;48.172;8.058;2023-03-23T17:25:24;10.55;;;5.60;;
13891;SDS011;7016;48.172;8.058;2023-03-23T17:27:50;8.52;;;3.90;;
13891;SDS011;7016;48.172;8.058;2023-03-23T17:30:17;8.77;;;4.63;;
13891;SDS011;7016;48.172;8.058;2023-03-23T17:32:43;12.38;;;7.82;;